createdAt,value
2022-11-22T00:00:54.345Z,3.75
2022-11-22T00:03:22.426Z,3.73
2022-11-22T00:05:50.285Z,3.69
2022-11-22T00:08:18.442Z,3.69
2022-11-22T00:10:46.348Z,3.79
2022-11-22T00:13:14.210Z,3.79
2022-11-22T00:15:42.074Z,3.87
2022-11-22T00:18:11.718Z,3.88
2022-11-22T00:20:39.626Z,3.95
2022-11-22T00:23:07.509Z,3.90
2022-11-22T00:25:35.383Z,3.96
2022-11-22T00:28:03.289Z,3.95
2022-11-22T00:30:31.099Z,4.03
2022-11-22T00:32:58.983Z,3.91
2022-11-22T00:35:28.304Z,3.92
2022-11-22T00:37:56.235Z,3.94
2022-11-22T00:40:24.152Z,3.89
2022-11-22T00:42:52.076Z,3.94
2022-11-22T00:45:19.880Z,3.97
2022-11-22T00:47:47.762Z,3.91
2022-11-22T00:50:15.739Z,3.93
2022-11-22T00:52:45.030Z,3.94
2022-11-22T00:55:12.896Z,3.96
2022-11-22T00:57:40.817Z,3.92
2022-11-22T01:00:10.270Z,3.98
2022-11-22T01:02:38.219Z,4.03
2022-11-22T01:05:06.708Z,4.05
2022-11-22T01:07:34.613Z,4.02
2022-11-22T01:10:03.884Z,4.01
2022-11-22T01:12:31.778Z,3.97
2022-11-22T01:14:59.656Z,3.97
2022-11-22T01:17:28.235Z,3.93
2022-11-22T01:19:56.103Z,3.92
2022-11-22T01:22:23.976Z,3.97
2022-11-22T01:24:51.840Z,3.94
2022-11-22T01:27:21.133Z,4.00
2022-11-22T01:29:48.984Z,3.99
2022-11-22T01:32:16.875Z,3.91
2022-11-22T01:34:44.686Z,3.90
2022-11-22T01:37:12.529Z,3.88
2022-11-22T01:39:40.388Z,3.86
2022-11-22T01:42:08.334Z,3.93
2022-11-22T01:44:37.535Z,3.93
2022-11-22T01:47:08.976Z,3.88
2022-11-22T01:49:40.526Z,3.87
2022-11-22T01:52:15.095Z,3.91
2022-11-22T01:54:47.082Z,3.94
2022-11-22T01:57:18.513Z,4.02
2022-11-22T01:59:53.053Z,3.98
2022-11-22T02:02:20.941Z,3.96
2022-11-22T02:04:52.028Z,3.99
2022-11-22T02:07:23.736Z,3.91
2022-11-22T02:09:53.842Z,3.90
2022-11-22T02:12:27.962Z,3.87
2022-11-22T02:14:58.292Z,3.97
2022-11-22T02:17:27.314Z,3.93
2022-11-22T02:19:56.632Z,3.93
2022-11-22T02:22:32.565Z,3.92
2022-11-22T02:25:08.041Z,3.96
2022-11-22T02:27:37.291Z,3.93
2022-11-22T02:30:06.008Z,3.92
2022-11-22T02:32:33.833Z,3.93
2022-11-22T02:35:01.710Z,3.92
2022-11-22T02:37:32.820Z,3.91
2022-11-22T02:40:06.160Z,3.91
2022-11-22T02:42:35.085Z,3.96
2022-11-22T02:45:04.806Z,3.83
2022-11-22T02:47:32.722Z,3.83
2022-11-22T02:50:00.620Z,3.82
2022-11-22T02:52:28.526Z,3.79
2022-11-22T02:54:56.694Z,3.77
2022-11-22T02:57:24.669Z,3.88
2022-11-22T02:59:52.567Z,3.85
2022-11-22T03:02:21.812Z,3.81
2022-11-22T03:04:49.800Z,3.84
2022-11-22T03:07:18.384Z,3.80
2022-11-22T03:09:46.362Z,3.86
2022-11-22T03:12:14.197Z,3.79
2022-11-22T03:14:42.905Z,3.81
2022-11-22T03:17:10.728Z,3.80
2022-11-22T03:19:39.995Z,3.85
2022-11-22T03:22:07.906Z,3.85
2022-11-22T03:24:35.858Z,3.81
2022-11-22T03:27:03.756Z,3.81
2022-11-22T03:29:31.962Z,3.79
2022-11-22T03:32:00.025Z,3.71
2022-11-22T03:34:28.164Z,3.77
2022-11-22T03:36:57.454Z,3.83
2022-11-22T03:39:25.535Z,3.74
2022-11-22T03:41:55.382Z,3.76
2022-11-22T03:44:23.377Z,3.79
2022-11-22T03:46:51.255Z,3.83
2022-11-22T03:49:19.220Z,3.79
2022-11-22T03:51:47.051Z,3.78
2022-11-22T03:54:16.418Z,3.78
2022-11-22T03:56:44.250Z,3.78
2022-11-22T03:59:12.118Z,3.71
2022-11-22T04:01:40.018Z,3.71
2022-11-22T04:04:07.966Z,3.77
2022-11-22T04:06:35.829Z,3.73
2022-11-22T04:09:03.738Z,3.69
2022-11-22T04:11:32.989Z,3.74
2022-11-22T04:14:18.131Z,3.71
2022-11-22T04:16:45.937Z,3.73
2022-11-22T04:19:13.817Z,3.78
2022-11-22T04:21:40.643Z,3.68
2022-11-22T04:24:28.539Z,3.80
2022-11-22T04:26:58.441Z,3.67
2022-11-22T04:29:26.353Z,3.61
2022-11-22T04:32:11.757Z,3.67
2022-11-22T04:34:39.694Z,3.52
2022-11-22T04:37:07.905Z,3.49
2022-11-22T04:39:35.936Z,3.45
2022-11-22T04:42:23.009Z,3.45
2022-11-22T04:44:50.873Z,3.44
2022-11-22T04:47:38.524Z,3.50
2022-11-22T04:50:29.135Z,3.58
2022-11-22T04:52:57.592Z,3.62
2022-11-22T04:55:26.004Z,3.66
2022-11-22T04:57:59.469Z,3.76
2022-11-22T05:00:28.612Z,3.86
2022-11-22T05:02:56.566Z,3.72
2022-11-22T05:05:24.937Z,3.72
2022-11-22T05:07:53.033Z,3.78
2022-11-22T05:10:26.139Z,3.80
2022-11-22T05:12:56.729Z,3.83
2022-11-22T05:15:25.135Z,3.85
2022-11-22T05:17:53.009Z,3.81
2022-11-22T05:20:21.160Z,3.86
2022-11-22T05:23:06.214Z,3.83
2022-11-22T05:25:34.138Z,3.88
2022-11-22T05:28:03.472Z,3.76
2022-11-22T05:30:31.390Z,3.76
2022-11-22T05:32:59.266Z,3.73
2022-11-22T05:35:27.158Z,3.87
2022-11-22T05:37:57.176Z,3.88
2022-11-22T05:40:25.481Z,3.94
2022-11-22T05:42:53.410Z,3.95
2022-11-22T05:45:22.675Z,3.96
2022-11-22T05:47:50.548Z,4.00
2022-11-22T05:50:18.431Z,4.07
2022-11-22T05:52:46.239Z,4.14
2022-11-22T05:55:14.098Z,4.19
2022-11-22T05:57:41.941Z,4.22
2022-11-22T06:00:10.914Z,4.24
2022-11-22T06:02:40.182Z,4.23
2022-11-22T06:05:09.080Z,4.20
2022-11-22T06:07:37.146Z,4.10
2022-11-22T06:10:05.458Z,4.02
2022-11-22T06:12:33.308Z,3.96
2022-11-22T06:15:01.273Z,3.89
2022-11-22T06:17:29.171Z,3.80
2022-11-22T06:20:02.819Z,3.69
2022-11-22T06:22:33.859Z,3.67
2022-11-22T06:25:01.945Z,3.71
2022-11-22T06:27:29.796Z,3.73
2022-11-22T06:29:57.623Z,3.71
2022-11-22T06:32:25.703Z,3.74
2022-11-22T06:34:53.636Z,3.80
2022-11-22T06:37:22.897Z,3.70
2022-11-22T06:39:51.101Z,3.82
2022-11-22T06:42:19.139Z,3.87
2022-11-22T06:44:47.009Z,3.80
2022-11-22T06:47:14.896Z,3.80
2022-11-22T06:49:42.748Z,3.89
2022-11-22T06:52:10.635Z,3.83
2022-11-22T06:54:39.960Z,3.86
2022-11-22T06:57:07.865Z,3.72
2022-11-22T06:59:36.147Z,3.64
2022-11-22T07:02:06.637Z,3.71
2022-11-22T07:04:34.871Z,3.68
2022-11-22T07:07:02.784Z,3.78
2022-11-22T07:09:30.934Z,3.94
2022-11-22T07:12:00.339Z,3.86
2022-11-22T07:14:28.179Z,3.91
2022-11-22T07:16:56.040Z,3.83
2022-11-22T07:19:23.887Z,3.76
2022-11-22T07:21:51.810Z,3.96
2022-11-22T07:24:19.665Z,3.90
2022-11-22T07:26:47.557Z,3.97
2022-11-22T07:29:16.764Z,3.87
2022-11-22T07:31:46.355Z,3.87
2022-11-22T07:34:14.400Z,3.88
2022-11-22T07:36:42.275Z,3.90
2022-11-22T07:39:10.117Z,3.88
2022-11-22T07:41:37.974Z,3.97
2022-11-22T07:44:06.066Z,3.87
2022-11-22T07:46:35.317Z,3.77
2022-11-22T07:49:03.478Z,3.80
2022-11-22T07:51:31.633Z,3.81
2022-11-22T07:53:59.543Z,3.83
2022-11-22T07:56:27.493Z,3.77
2022-11-22T07:58:56.100Z,3.91
2022-11-22T08:01:24.109Z,3.88
2022-11-22T08:03:53.362Z,3.87
2022-11-22T08:06:22.412Z,3.86
2022-11-22T08:08:50.261Z,4.02
2022-11-22T08:11:18.154Z,3.98
2022-11-22T08:13:46.016Z,3.97
2022-11-22T08:16:16.402Z,4.19
2022-11-22T08:18:48.098Z,4.04
2022-11-22T08:21:19.073Z,4.21
2022-11-22T08:23:48.404Z,4.30
2022-11-22T08:26:17.934Z,4.41
2022-11-22T08:28:46.073Z,4.23
2022-11-22T08:31:15.774Z,4.29
2022-11-22T08:33:43.677Z,4.37
2022-11-22T08:36:11.906Z,4.49
2022-11-22T08:38:41.184Z,4.49
2022-11-22T08:41:09.123Z,4.50
2022-11-22T08:43:37.504Z,4.50
2022-11-22T08:46:05.982Z,4.55
2022-11-22T08:48:35.343Z,4.53
2022-11-22T08:51:04.685Z,4.67
2022-11-22T08:53:33.692Z,4.86
2022-11-22T08:56:04.118Z,4.80
2022-11-22T08:58:32.838Z,4.99
2022-11-22T09:01:06.278Z,5.14
2022-11-22T09:03:36.002Z,5.08
2022-11-22T09:09:15.129Z,5.67
2022-11-22T09:11:42.086Z,5.89
2022-11-22T09:14:09.950Z,5.96
2022-11-22T09:16:37.804Z,6.00
2022-11-22T09:19:05.748Z,6.00
2022-11-22T09:21:33.693Z,6.06
2022-11-22T09:24:01.618Z,6.06
2022-11-22T09:26:30.592Z,6.08
2022-11-22T09:28:59.835Z,6.27
2022-11-22T09:31:27.667Z,6.36
2022-11-22T09:33:55.496Z,6.66
2022-11-22T09:36:26.279Z,6.63
2022-11-22T09:38:54.565Z,6.88
2022-11-22T09:41:48.485Z,7.03
2022-11-22T09:44:24.568Z,7.19
2022-11-22T09:46:54.725Z,7.24
2022-11-22T09:49:31.056Z,7.51
2022-11-22T09:52:07.251Z,7.66
2022-11-22T09:54:41.735Z,7.69
2022-11-22T09:57:15.726Z,7.40
2022-11-22T09:59:48.218Z,7.69
2022-11-22T10:02:20.788Z,7.42
2022-11-22T10:04:55.623Z,7.74
2022-11-22T10:07:29.816Z,7.85
2022-11-22T10:10:05.125Z,8.20
2022-11-22T10:12:38.607Z,8.32
2022-11-22T10:15:17.719Z,8.49
2022-11-22T10:17:54.032Z,8.38
2022-11-22T10:20:23.593Z,8.30
2022-11-22T10:22:52.034Z,8.35
2022-11-22T10:25:22.015Z,8.27
2022-11-22T10:27:59.206Z,8.38
2022-11-22T10:30:37.209Z,8.53
2022-11-22T10:33:15.220Z,8.61
2022-11-22T10:36:06.036Z,8.46
2022-11-22T10:38:45.020Z,8.52
2022-11-22T10:41:24.369Z,8.63
2022-11-22T10:44:04.080Z,8.44
2022-11-22T10:46:56.541Z,8.64
2022-11-22T10:49:39.882Z,8.53
2022-11-22T10:52:17.712Z,8.53
2022-11-22T10:54:52.180Z,8.43
2022-11-22T10:57:34.114Z,8.38
2022-11-22T11:00:17.547Z,8.27
2022-11-22T11:03:26.683Z,8.59
2022-11-22T11:11:42.242Z,8.60
2022-11-22T11:14:19.994Z,8.50
2022-11-22T11:16:48.858Z,8.73
2022-11-22T11:19:20.421Z,8.32
2022-11-22T11:21:56.957Z,8.43
2022-11-22T11:24:24.853Z,8.57
2022-11-22T11:26:55.510Z,8.34
2022-11-22T11:29:37.862Z,8.38
2022-11-22T11:32:09.369Z,8.52
2022-11-22T11:34:41.813Z,8.21
2022-11-22T11:37:22.334Z,8.62
2022-11-22T11:39:50.721Z,8.37
2022-11-22T11:42:28.313Z,8.63
2022-11-22T11:44:56.584Z,8.71
2022-11-22T11:47:42.062Z,8.53
2022-11-22T11:50:23.928Z,8.15
2022-11-22T11:52:55.069Z,8.50
2022-11-22T11:55:23.266Z,8.42
2022-11-22T11:57:54.310Z,8.56
2022-11-22T12:00:27.284Z,8.69
2022-11-22T12:03:00.863Z,8.77
2022-11-22T12:05:32.677Z,8.83
2022-11-22T12:08:02.119Z,8.96
2022-11-22T12:10:45.348Z,8.97
2022-11-22T12:13:22.642Z,9.10
2022-11-22T12:15:57.305Z,9.50
2022-11-22T12:18:42.693Z,9.07
2022-11-22T12:21:23.821Z,8.77
2022-11-22T12:24:19.523Z,9.31
2022-11-22T12:26:45.360Z,9.07
2022-11-22T12:29:15.001Z,8.94
2022-11-22T12:31:47.684Z,9.10
2022-11-22T12:34:22.012Z,9.40
2022-11-22T12:36:57.642Z,9.12
2022-11-22T12:39:30.551Z,8.97
2022-11-22T12:42:04.041Z,9.18
2022-11-22T12:44:45.940Z,9.40
2022-11-22T12:47:18.060Z,9.22
2022-11-22T12:49:51.596Z,9.58
2022-11-22T12:52:27.485Z,9.70
2022-11-22T12:55:03.551Z,9.61
2022-11-22T12:57:45.026Z,9.54
2022-11-22T13:00:17.149Z,9.73
2022-11-22T13:02:59.313Z,10.02
2022-11-22T13:05:32.576Z,10.60
2022-11-22T13:08:13.148Z,10.16
2022-11-22T13:10:51.737Z,9.88
2022-11-22T13:13:25.861Z,10.40
2022-11-22T13:15:56.450Z,10.17
2022-11-22T13:18:30.356Z,11.26
2022-11-22T13:21:08.639Z,10.41
2022-11-22T13:23:52.866Z,9.53
2022-11-22T13:26:30.945Z,10.22
2022-11-22T13:28:59.978Z,10.63
2022-11-22T13:31:27.945Z,10.95
2022-11-22T13:33:58.694Z,10.42
2022-11-22T13:36:49.190Z,10.13
2022-11-22T13:39:26.029Z,10.33
2022-11-22T13:42:04.358Z,10.32
2022-11-22T13:44:51.327Z,10.51
2022-11-22T13:47:42.620Z,10.17
2022-11-22T13:50:52.481Z,9.87
2022-11-22T13:53:33.398Z,10.34
2022-11-22T13:57:00.873Z,9.89
2022-11-22T13:59:29.130Z,10.06
2022-11-22T14:02:00.157Z,9.99
2022-11-22T14:04:46.480Z,10.20
2022-11-22T14:07:33.174Z,10.47
2022-11-22T14:10:03.304Z,9.91
2022-11-22T14:12:57.257Z,9.76
2022-11-22T14:15:39.950Z,9.43
2022-11-22T14:18:34.338Z,9.26
2022-11-22T14:21:06.200Z,8.94
2022-11-22T14:23:46.473Z,8.93
2022-11-22T14:26:25.713Z,8.56
2022-11-22T14:29:32.289Z,8.55
2022-11-22T14:32:04.984Z,8.45
2022-11-22T14:34:33.199Z,8.32
2022-11-22T14:37:43.786Z,8.07
2022-11-22T14:40:32.687Z,8.11
2022-11-22T14:43:03.546Z,8.04
2022-11-22T14:45:42.468Z,7.99
2022-11-22T14:48:20.712Z,7.96
2022-11-22T14:50:53.065Z,7.79
2022-11-22T14:53:34.531Z,7.76
2022-11-22T14:56:08.965Z,7.58
2022-11-22T14:58:40.335Z,7.48
2022-11-22T15:01:49.222Z,7.39
2022-11-22T15:09:14.763Z,7.22
2022-11-22T15:09:23.875Z,7.47
2022-11-22T15:11:31.901Z,7.14
2022-11-22T15:14:28.549Z,7.09
2022-11-22T15:57:33.391Z,6.36
2022-11-22T16:00:02.365Z,6.43
2022-11-22T16:02:32.063Z,6.23
2022-11-22T16:06:08.281Z,6.38
2022-11-22T16:07:52.509Z,6.42
2022-11-22T16:10:23.814Z,6.44
2022-11-22T16:12:55.632Z,6.28
2022-11-22T16:15:30.364Z,6.23
2022-11-22T16:18:09.551Z,6.24
2022-11-22T16:20:39.452Z,6.18
2022-11-22T16:23:20.109Z,6.19
2022-11-22T16:25:50.429Z,6.17
2022-11-22T16:28:34.143Z,6.19
2022-11-22T16:31:05.774Z,6.16
2022-11-22T16:33:33.965Z,6.16
2022-11-22T16:36:02.933Z,6.19
2022-11-22T16:38:31.067Z,6.09
2022-11-22T16:41:00.251Z,6.11
2022-11-22T16:44:17.592Z,6.02
2022-11-22T16:46:47.910Z,6.01
2022-11-22T16:49:20.364Z,6.00
2022-11-22T16:51:48.998Z,5.93
2022-11-22T16:54:19.280Z,6.01
2022-11-22T16:56:47.692Z,6.05
2022-11-22T16:59:15.541Z,5.96
2022-11-22T17:01:44.497Z,5.94
2022-11-22T17:04:25.289Z,5.96
2022-11-22T17:06:53.956Z,5.97
2022-11-22T17:09:22.267Z,6.03
2022-11-22T17:11:50.979Z,6.08
2022-11-22T17:14:19.554Z,6.06
2022-11-22T17:16:47.816Z,6.01
2022-11-22T17:19:51.732Z,5.91
2022-11-22T17:22:07.169Z,5.83
2022-11-22T17:24:35.239Z,5.86
2022-11-22T17:27:03.161Z,5.82
2022-11-22T17:32:19.934Z,5.75
2022-11-22T17:34:49.408Z,5.68
2022-11-22T17:37:17.353Z,5.71
2022-11-22T17:39:45.267Z,5.68
2022-11-22T17:42:13.297Z,5.63
2022-11-22T17:44:41.331Z,5.61
2022-11-22T17:47:09.204Z,5.61
2022-11-22T17:49:37.060Z,5.55
2022-11-22T17:52:06.299Z,5.53
2022-11-22T17:54:34.339Z,5.56
2022-11-22T17:57:02.163Z,5.55
2022-11-22T17:59:30.396Z,5.60
2022-11-22T18:01:58.750Z,5.67
2022-11-22T18:04:26.655Z,5.69
2022-11-22T18:06:54.550Z,5.67
2022-11-22T18:09:23.831Z,5.71
2022-11-22T18:11:51.677Z,5.61
2022-11-22T18:14:19.533Z,5.61
2022-11-22T18:16:47.400Z,5.65
2022-11-22T18:19:15.204Z,5.65
2022-11-22T18:21:43.188Z,5.62
2022-11-22T18:24:11.089Z,5.56
2022-11-22T18:26:41.301Z,5.50
2022-11-22T18:32:00.111Z,5.47
2022-11-22T18:34:29.012Z,5.45
2022-11-22T18:37:01.959Z,5.39
2022-11-22T18:39:32.393Z,5.26
2022-11-22T18:42:01.978Z,5.32
2022-11-22T18:44:29.918Z,5.33
2022-11-22T18:46:57.890Z,5.33
2022-11-22T18:49:25.826Z,5.33
2022-11-22T18:51:53.905Z,5.28
2022-11-22T18:54:22.874Z,5.22
2022-11-22T18:56:50.832Z,5.28
2022-11-22T18:59:20.310Z,5.26
2022-11-22T19:01:48.275Z,5.23
2022-11-22T19:04:17.223Z,5.22
2022-11-22T19:06:46.099Z,5.20
2022-11-22T19:09:14.280Z,5.28
2022-11-22T19:11:42.278Z,5.22
2022-11-22T19:14:10.388Z,5.18
2022-11-22T19:16:39.635Z,5.24
2022-11-22T19:19:08.446Z,5.27
2022-11-22T19:21:36.415Z,5.32
2022-11-22T19:24:04.773Z,5.29
2022-11-22T19:26:32.773Z,5.22
2022-11-22T19:29:02.580Z,5.26
2022-11-22T19:31:31.542Z,5.38
2022-11-22T19:34:01.529Z,5.39
2022-11-22T19:36:34.154Z,5.47
2022-11-22T19:39:03.690Z,5.48
2022-11-22T19:41:32.014Z,5.46
2022-11-22T19:44:00.078Z,5.47
2022-11-22T19:46:28.297Z,5.48
2022-11-22T19:48:57.955Z,5.41
2022-11-22T19:51:30.933Z,5.46
2022-11-22T19:54:02.244Z,5.45
2022-11-22T19:56:32.533Z,5.46
2022-11-22T19:59:01.847Z,5.39
2022-11-22T20:01:31.240Z,5.45
2022-11-22T20:04:00.647Z,5.39
2022-11-22T20:06:30.110Z,5.32
2022-11-22T20:09:01.923Z,5.37
2022-11-22T20:11:29.791Z,5.32
2022-11-22T20:13:57.843Z,5.28
2022-11-22T20:16:28.071Z,5.31
2022-11-22T20:18:56.937Z,5.28
2022-11-22T20:21:26.081Z,5.21
2022-11-22T20:23:55.490Z,5.14
2022-11-22T20:26:24.114Z,4.97
2022-11-22T20:28:56.308Z,4.98
2022-11-22T20:31:24.576Z,4.92
2022-11-22T20:33:54.263Z,4.86
2022-11-22T20:36:24.339Z,4.85
2022-11-22T20:38:52.837Z,4.80
2022-11-22T20:41:23.308Z,4.80
2022-11-22T20:43:51.160Z,4.86
2022-11-22T20:46:20.564Z,4.91
2022-11-22T20:48:52.095Z,5.03
2022-11-22T20:51:22.594Z,5.00
2022-11-22T20:53:51.280Z,5.01
2022-11-22T20:56:21.472Z,5.01
2022-11-22T20:58:50.049Z,4.93
2022-11-22T21:01:19.889Z,4.88
2022-11-22T21:03:48.723Z,4.75
2022-11-22T21:06:18.380Z,4.76
2022-11-22T21:08:46.709Z,4.64
2022-11-22T21:11:16.440Z,4.63
2022-11-22T21:13:47.286Z,4.64
2022-11-22T21:16:25.319Z,4.54
2022-11-22T21:18:54.406Z,4.62
2022-11-22T21:21:25.829Z,4.62
2022-11-22T21:23:55.094Z,4.59
2022-11-22T21:26:24.336Z,4.50
2022-11-22T21:28:54.530Z,4.35
2022-11-22T21:31:23.814Z,4.25
2022-11-22T21:33:52.869Z,4.22
2022-11-22T21:36:22.167Z,4.06
2022-11-22T21:38:50.150Z,4.00
2022-11-22T21:44:11.748Z,3.89
2022-11-22T21:46:40.270Z,3.93
2022-11-22T21:49:08.746Z,3.88
2022-11-22T21:51:36.676Z,3.82
2022-11-22T21:54:05.095Z,3.90
2022-11-22T21:56:33.169Z,3.72
2022-11-22T21:59:01.177Z,3.72
2022-11-22T22:01:30.614Z,3.77
2022-11-22T22:03:58.556Z,3.71
2022-11-22T22:06:27.262Z,3.59
2022-11-22T22:08:55.137Z,3.53
2022-11-22T22:11:23.349Z,3.47
2022-11-22T22:13:53.522Z,3.44
2022-11-22T22:16:23.735Z,3.42
2022-11-22T22:18:54.403Z,3.37
2022-11-22T22:21:22.735Z,3.28
2022-11-22T22:23:51.218Z,3.24
2022-11-22T22:26:19.146Z,3.26
2022-11-22T22:28:47.713Z,3.29
2022-11-22T22:31:21.443Z,3.21
2022-11-22T22:33:50.984Z,3.20
2022-11-22T22:36:20.618Z,3.29
2022-11-22T22:38:48.848Z,3.32
2022-11-22T22:41:17.147Z,3.27
2022-11-22T22:43:47.225Z,3.19
2022-11-22T22:46:17.357Z,3.21
2022-11-22T22:48:45.496Z,3.15
2022-11-22T22:51:15.070Z,3.06
2022-11-22T22:53:45.374Z,3.12
2022-11-22T22:56:14.995Z,3.19
2022-11-22T22:58:43.048Z,3.08
2022-11-22T23:01:14.616Z,3.04
2022-11-22T23:03:42.759Z,3.04
2022-11-22T23:06:12.706Z,3.09
2022-11-22T23:08:41.132Z,2.97
2022-11-22T23:11:11.818Z,2.97
2022-11-22T23:13:41.325Z,2.95
2022-11-22T23:16:11.159Z,2.87
2022-11-22T23:18:41.720Z,2.82
2022-11-22T23:21:11.886Z,2.77
2022-11-22T23:23:40.141Z,2.79
2022-11-22T23:26:11.606Z,2.77
2022-11-22T23:28:39.667Z,2.70
2022-11-22T23:31:08.896Z,2.74
2022-11-22T23:33:36.898Z,2.59
2022-11-22T23:36:05.703Z,2.55
2022-11-22T23:38:34.024Z,2.50
2022-11-22T23:41:02.222Z,2.49
2022-11-22T23:43:31.876Z,2.28
2022-11-22T23:46:00.141Z,2.25
2022-11-22T23:48:28.310Z,2.27
2022-11-22T23:50:56.315Z,2.35
2022-11-22T23:53:25.063Z,2.62
2022-11-22T23:55:52.943Z,2.52
2022-11-22T23:58:20.753Z,2.37
